Time;durP1;ratioP1;P1;durP2;ratioP2;P2;SDS_P1;SDS_P2;PMS_P1;PMS_P2;Temp;Humidity;BMP_temperature;BMP_pressure;BME280_temperature;BME280_humidity;BME280_pressure;Samples;Min_cycle;Max_cycle;Signal;HPM_P1;HPM_P2
2023/07/31 00:02:18;;;;;;;19.30;7.50;;;;;;;18.07;78.22;100965.84;5047291;28;20029;-75
2023/07/31 00:04:43;;;;;;;15.55;7.05;;;;;;;18.12;77.98;100960.19;5041056;28;20045;-76
2023/07/31 00:07:08;;;;;;;17.10;7.20;;;;;;;18.03;77.91;100959.16;5046460;28;20029;-76
2023/07/31 00:09:34;;;;;;;18.23;6.63;;;;;;;18.00;77.96;100968.19;5052438;28;20028;-76
2023/07/31 00:11:59;;;;;;;17.80;6.70;;;;;;;18.05;78.21;100965.34;5049165;28;20068;-75
2023/07/31 00:14:25;;;;;;;16.48;6.68;;;;;;;18.05;78.28;100962.53;5056119;28;20049;-74
2023/07/31 00:16:50;;;;;;;18.77;6.95;;;;;;;18.07;77.83;100969.50;5072189;28;20035;-76
2023/07/31 00:19:15;;;;;;;18.65;6.68;;;;;;;18.04;78.01;100969.28;5070421;28;20036;-75
2023/07/31 00:21:41;;;;;;;17.00;6.53;;;;;;;18.03;78.13;100961.97;5068485;28;20016;-75
2023/07/31 00:24:06;;;;;;;18.33;6.95;;;;;;;18.07;78.08;100954.63;5065046;28;20162;-75
2023/07/31 00:26:31;;;;;;;16.67;6.50;;;;;;;18.02;78.12;100961.13;5070985;28;20017;-76
2023/07/31 00:28:57;;;;;;;16.23;6.15;;;;;;;18.04;77.91;100963.66;5070389;28;20102;-75
2023/07/31 00:31:22;;;;;;;15.38;6.18;;;;;;;18.04;78.08;100966.47;5069720;28;20137;-75
2023/07/31 00:33:47;;;;;;;15.43;6.10;;;;;;;18.05;77.79;100960.53;5069855;28;20754;-76
2023/07/31 00:36:12;;;;;;;15.82;6.32;;;;;;;18.06;77.69;100961.38;5068779;28;20045;-75
2023/07/31 00:38:38;;;;;;;11.63;6.20;;;;;;;18.02;77.98;100960.31;5069796;28;20043;-75
2023/07/31 00:41:03;;;;;;;17.05;6.57;;;;;;;17.94;78.10;100956.19;5064785;28;20040;-75
2023/07/31 00:43:28;;;;;;;14.25;6.85;;;;;;;18.03;78.01;100953.53;5071097;28;20430;-75
2023/07/31 00:45:54;;;;;;;16.40;6.40;;;;;;;18.00;77.85;100957.81;5069644;28;20029;-75
2023/07/31 00:48:19;;;;;;;21.83;6.82;;;;;;;17.97;77.84;100958.41;5070024;28;20116;-75
2023/07/31 00:50:45;;;;;;;14.45;6.13;;;;;;;17.98;77.83;100948.84;5069733;28;20033;-75
2023/07/31 00:53:10;;;;;;;14.25;6.00;;;;;;;18.02;78.06;100954.69;5069142;28;20035;-75
2023/07/31 00:55:36;;;;;;;13.73;5.97;;;;;;;18.02;77.72;100947.09;5070228;28;20162;-75
2023/07/31 00:58:01;;;;;;;17.98;6.20;;;;;;;18.00;77.87;100954.13;5064149;28;20025;-75
2023/07/31 01:00:26;;;;;;;15.85;6.35;;;;;;;18.02;77.55;100946.25;5069926;28;20028;-75
2023/07/31 01:02:52;;;;;;;17.38;5.90;;;;;;;18.01;77.60;100944.59;5071098;28;20079;-75
2023/07/31 01:05:29;;;;;;;16.95;6.03;;;;;;;17.98;77.63;100942.38;5069660;28;20460;-76
2023/07/31 01:08:08;;;;;;;15.20;6.03;;;;;;;17.95;77.46;100940.19;5067986;28;20064;-75
2023/07/31 01:10:41;;;;;;;14.60;5.50;;;;;;;17.89;77.58;100945.03;5067193;28;20033;-74
2023/07/31 01:13:08;;;;;;;16.92;5.40;;;;;;;17.93;77.56;100936.84;5067263;28;20552;-75
2023/07/31 01:15:33;;;;;;;13.95;5.15;;;;;;;17.97;76.98;100935.94;5070171;28;20051;-75
2023/07/31 01:17:58;;;;;;;15.10;5.70;;;;;;;17.93;77.45;100931.22;5073200;28;20032;-75
2023/07/31 01:20:26;;;;;;;12.35;5.10;;;;;;;17.97;77.07;100935.94;5074406;28;20040;-75
2023/07/31 01:23:15;;;;;;;16.27;6.43;;;;;;;17.95;77.12;100938.19;5074949;28;20104;-75
2023/07/31 01:26:13;;;;;;;12.73;5.82;;;;;;;17.97;77.04;100937.91;5072580;28;20044;-75
2023/07/31 01:29:12;;;;;;;20.40;5.93;;;;;;;17.95;76.67;100935.38;5072662;28;20040;-75
2023/07/31 01:31:39;;;;;;;18.08;5.95;;;;;;;17.88;76.70;100934.91;5064328;28;20035;-75
2023/07/31 01:34:07;;;;;;;13.15;5.72;;;;;;;17.86;76.88;100940.84;5055125;28;20562;-75
2023/07/31 01:36:32;;;;;;;16.48;6.30;;;;;;;17.89;76.90;100940.25;5068764;28;20633;-75
2023/07/31 01:39:02;;;;;;;11.10;4.82;;;;;;;17.85;76.60;100933.56;5073610;28;20086;-75
2023/07/31 01:41:27;;;;;;;16.98;6.85;;;;;;;17.83;76.66;100935.81;5073688;28;20028;-75
2023/07/31 01:43:52;;;;;;;12.95;5.95;;;;;;;17.82;76.57;100930.50;5074349;28;20086;-75
2023/07/31 01:46:18;;;;;;;14.68;5.90;;;;;;;17.85;76.57;100939.19;5074147;28;20024;-75
2023/07/31 01:48:43;;;;;;;13.77;5.57;;;;;;;17.88;76.28;100932.97;5070803;28;20040;-75
2023/07/31 01:51:08;;;;;;;14.82;6.20;;;;;;;17.84;75.90;100931.03;5072933;28;20020;-75
2023/07/31 01:53:34;;;;;;;15.45;5.65;;;;;;;17.86;75.98;100929.63;5070902;28;20052;-75
2023/07/31 01:55:59;;;;;;;15.57;5.85;;;;;;;17.87;75.73;100922.84;5073620;28;20024;-75
2023/07/31 01:58:24;;;;;;;17.98;5.75;;;;;;;17.91;74.78;100912.69;5073850;28;20037;-76
2023/07/31 02:00:50;;;;;;;16.42;6.22;;;;;;;17.88;75.25;100921.75;5073295;28;20037;-76
2023/07/31 02:03:15;;;;;;;13.88;6.03;;;;;;;17.85;75.31;100913.91;5071930;28;20032;-76
2023/07/31 02:05:45;;;;;;;13.35;5.53;;;;;;;17.87;75.29;100908.81;5068930;28;20523;-76
2023/07/31 02:08:10;;;;;;;13.38;5.85;;;;;;;17.83;75.03;100907.75;5073185;28;20604;-75
2023/07/31 02:10:36;;;;;;;14.95;5.93;;;;;;;17.81;75.22;100909.19;5071680;28;20162;-76
2023/07/31 02:13:03;;;;;;;15.85;6.25;;;;;;;17.82;74.77;100899.63;5073505;28;20032;-76
2023/07/31 02:15:30;;;;;;;13.25;5.50;;;;;;;17.79;75.12;100897.41;5072648;28;20515;-76
2023/07/31 02:17:55;;;;;;;16.63;6.40;;;;;;;17.81;75.03;100898.78;5071634;28;20031;-75
2023/07/31 02:20:20;;;;;;;14.10;6.15;;;;;;;17.80;74.47;100897.13;5072682;28;20032;-75
2023/07/31 02:22:45;;;;;;;13.43;6.28;;;;;;;17.80;74.67;100890.66;5074002;28;20085;-75
2023/07/31 02:25:11;;;;;;;15.50;6.28;;;;;;;17.72;74.86;100889.31;5067852;28;20371;-75
2023/07/31 02:27:36;;;;;;;14.63;6.47;;;;;;;17.79;74.84;100889.81;5072625;28;20044;-75
2023/07/31 02:30:02;;;;;;;16.52;6.75;;;;;;;17.79;74.50;100883.38;5072518;28;20023;-76
2023/07/31 02:32:27;;;;;;;19.10;6.55;;;;;;;17.73;74.49;100891.00;5072464;28;20507;-76
2023/07/31 02:34:53;;;;;;;17.10;7.10;;;;;;;17.74;74.16;100878.63;5073834;28;20116;-75
2023/07/31 02:37:18;;;;;;;14.40;6.63;;;;;;;17.76;74.18;100881.16;5072726;28;20016;-75
2023/07/31 02:39:43;;;;;;;13.77;6.10;;;;;;;17.75;74.07;100874.72;5070631;28;20033;-75
2023/07/31 02:42:09;;;;;;;17.02;6.72;;;;;;;17.75;74.16;100873.88;5070032;28;20605;-75
2023/07/31 02:44:34;;;;;;;20.33;7.15;;;;;;;17.74;73.91;100864.59;5073825;28;20029;-76
2023/07/31 02:46:59;;;;;;;17.52;6.13;;;;;;;17.74;73.91;100872.19;5071507;28;20056;-76
2023/07/31 02:49:24;;;;;;;12.82;6.38;;;;;;;17.71;73.71;100869.97;5072437;28;20032;-76
2023/07/31 02:51:50;;;;;;;17.08;6.93;;;;;;;17.70;73.68;100874.75;5072440;28;20484;-75
2023/07/31 02:54:15;;;;;;;13.38;6.35;;;;;;;17.69;73.88;100875.06;5070716;28;20032;-75
2023/07/31 02:56:40;;;;;;;18.23;6.43;;;;;;;17.71;73.69;100870.81;5072224;28;20032;-75
2023/07/31 02:59:06;;;;;;;13.73;6.15;;;;;;;17.72;73.60;100866.84;5061159;28;20033;-75
2023/07/31 03:01:31;;;;;;;17.05;6.60;;;;;;;17.64;73.75;100865.59;5064923;28;20040;-75
2023/07/31 03:03:57;;;;;;;16.45;5.88;;;;;;;17.61;74.00;100868.16;5070909;28;20036;-75
2023/07/31 03:06:22;;;;;;;13.25;6.28;;;;;;;17.61;73.99;100871.78;5072892;28;20028;-75
2023/07/31 03:08:47;;;;;;;14.85;5.80;;;;;;;17.63;73.75;100863.91;5069353;28;20661;-76
2023/07/31 03:11:12;;;;;;;16.80;6.45;;;;;;;17.62;74.08;100861.41;5071117;28;20566;-75
2023/07/31 03:13:38;;;;;;;18.05;6.93;;;;;;;17.66;73.92;100870.88;5072802;28;20506;-75
2023/07/31 03:16:03;;;;;;;16.80;7.05;;;;;;;17.64;74.03;100871.19;5061275;28;20044;-75
2023/07/31 03:18:28;;;;;;;14.27;6.13;;;;;;;17.66;74.01;100863.28;5072231;28;20132;-75
2023/07/31 03:20:54;;;;;;;19.92;7.22;;;;;;;17.60;74.27;100858.88;5072231;28;20029;-76
2023/07/31 03:23:19;;;;;;;16.23;6.15;;;;;;;17.65;74.05;100860.81;5073063;28;20032;-75
2023/07/31 03:26:03;;;;;;;19.02;5.97;;;;;;;17.65;74.26;100866.41;5071608;28;20020;-76
2023/07/31 03:28:29;;;;;;;16.33;6.00;;;;;;;17.61;74.18;100865.34;5072838;28;20025;-76
2023/07/31 03:30:54;;;;;;;13.88;5.75;;;;;;;17.63;74.20;100847.06;5072491;28;20571;-76
2023/07/31 03:33:19;;;;;;;17.05;6.32;;;;;;;17.51;74.62;100854.25;5068813;28;20082;-76
2023/07/31 03:35:45;;;;;;;15.60;6.43;;;;;;;17.57;74.53;100842.66;5071709;28;20024;-75
2023/07/31 03:38:11;;;;;;;17.60;6.45;;;;;;;17.56;74.54;100842.94;5072008;28;20475;-75
2023/07/31 03:40:36;;;;;;;16.40;5.82;;;;;;;17.62;74.33;100842.59;5071319;28;20043;-75
2023/07/31 03:43:01;;;;;;;15.98;5.50;;;;;;;17.60;74.67;100841.19;5072203;28;20063;-75
2023/07/31 03:45:26;;;;;;;15.80;6.07;;;;;;;17.61;74.58;100840.09;5071101;28;20024;-76
2023/07/31 03:47:52;;;;;;;15.43;5.88;;;;;;;17.65;74.54;100832.72;5069426;28;20476;-76
2023/07/31 03:50:17;;;;;;;17.75;6.00;;;;;;;17.65;74.61;100824.31;5062932;28;20056;-76
2023/07/31 03:52:42;;;;;;;19.42;5.80;;;;;;;17.62;74.75;100824.91;5072338;28;20229;-75
2023/07/31 03:55:08;;;;;;;16.02;5.63;;;;;;;17.65;74.72;100833.56;5072833;28;20063;-76
2023/07/31 03:57:33;;;;;;;14.93;5.97;;;;;;;17.63;74.89;100820.97;5069660;28;20041;-76
2023/07/31 03:59:59;;;;;;;13.95;5.60;;;;;;;17.63;74.97;100820.97;5072110;28;20074;-76
2023/07/31 04:02:24;;;;;;;16.00;5.88;;;;;;;17.61;75.21;100812.03;5070509;28;20452;-76
2023/07/31 04:04:49;;;;;;;13.50;5.97;;;;;;;17.64;75.35;100808.59;5070928;28;20035;-76
2023/07/31 04:07:15;;;;;;;13.35;6.10;;;;;;;17.65;75.55;100810.28;5059801;28;20029;-75
2023/07/31 04:09:40;;;;;;;14.02;5.45;;;;;;;17.63;75.38;100804.13;5062198;28;20039;-76
2023/07/31 04:12:06;;;;;;;15.27;5.80;;;;;;;17.66;75.60;100803.53;5069479;28;20028;-76
2023/07/31 04:14:31;;;;;;;15.18;5.45;;;;;;;17.65;75.53;100802.69;5070478;28;20041;-75
2023/07/31 04:16:56;;;;;;;14.27;5.97;;;;;;;17.68;75.81;100809.66;5070132;28;20054;-75
2023/07/31 04:19:22;;;;;;;16.27;5.97;;;;;;;17.70;75.84;100800.94;5070680;28;20111;-75
2023/07/31 04:21:47;;;;;;;10.82;5.38;;;;;;;17.67;76.13;100796.75;5071841;28;20028;-75
2023/07/31 04:24:12;;;;;;;18.75;5.55;;;;;;;17.72;76.18;100788.25;5063596;28;20810;-76
2023/07/31 04:26:38;;;;;;;15.13;5.38;;;;;;;17.72;75.84;100784.63;5070165;28;20029;-75
2023/07/31 04:29:03;;;;;;;13.63;5.22;;;;;;;17.71;75.94;100792.22;5062749;28;20369;-75
2023/07/31 04:31:28;;;;;;;11.52;5.57;;;;;;;17.71;75.90;100783.78;5066468;28;20028;-75
2023/07/31 04:33:54;;;;;;;15.10;5.45;;;;;;;17.74;76.20;100787.97;5070135;28;20093;-75
2023/07/31 04:36:19;;;;;;;13.15;5.45;;;;;;;17.73;76.36;100786.31;5070845;28;20046;-75
2023/07/31 04:38:44;;;;;;;16.17;6.25;;;;;;;17.70;76.52;100782.13;5070884;28;20499;-75
2023/07/31 04:41:09;;;;;;;18.73;5.82;;;;;;;17.71;76.47;100783.78;5070544;28;20032;-75
2023/07/31 04:43:35;;;;;;;14.48;6.13;;;;;;;17.67;77.14;100774.31;5070180;28;20111;-75
2023/07/31 04:46:00;;;;;;;13.60;5.97;;;;;;;17.68;77.24;100767.53;5069493;28;20092;-75
2023/07/31 04:48:25;;;;;;;12.73;5.82;;;;;;;17.68;77.34;100764.75;5064001;28;20036;-75
2023/07/31 04:50:51;;;;;;;16.38;6.30;;;;;;;17.64;77.69;100761.72;5055938;28;20039;-75
2023/07/31 04:53:16;;;;;;;15.13;5.63;;;;;;;17.69;77.23;100760.81;5070933;28;20039;-75
2023/07/31 04:55:41;;;;;;;15.73;5.47;;;;;;;17.71;77.56;100766.94;5066857;28;20024;-75
2023/07/31 04:58:06;;;;;;;15.00;5.57;;;;;;;17.70;77.44;100762.47;5051522;28;20075;-75
2023/07/31 05:00:32;;;;;;;11.38;5.60;;;;;;;17.73;77.46;100759.06;5053096;28;20041;-75
2023/07/31 05:02:57;;;;;;;14.23;5.20;;;;;;;17.71;77.55;100761.34;5065703;28;20480;-75
2023/07/31 05:05:22;;;;;;;12.50;5.20;;;;;;;17.77;77.34;100757.34;5051060;28;20029;-76
2023/07/31 05:07:48;;;;;;;13.45;6.05;;;;;;;17.73;77.89;100753.47;5050888;28;20074;-76
2023/07/31 05:10:13;;;;;;;11.75;5.82;;;;;;;17.69;78.21;100752.41;5059263;28;20477;-76
2023/07/31 05:12:38;;;;;;;15.30;6.22;;;;;;;17.64;78.63;100747.69;5069359;28;20488;-75
2023/07/31 05:15:04;;;;;;;13.63;5.50;;;;;;;17.68;78.61;100756.31;5070369;28;20506;-75
2023/07/31 05:17:30;;;;;;;13.75;6.25;;;;;;;17.71;78.90;100747.28;5066031;28;20033;-76
2023/07/31 05:19:55;;;;;;;13.98;6.22;;;;;;;17.69;79.37;100743.97;5069471;28;20438;-75
2023/07/31 05:22:20;;;;;;;12.25;5.38;;;;;;;17.69;79.24;100743.16;5069308;28;20033;-75
2023/07/31 05:24:46;;;;;;;14.07;5.22;;;;;;;17.70;79.28;100744.81;5070602;28;20028;-75
2023/07/31 05:27:12;;;;;;;11.85;5.50;;;;;;;17.75;79.19;100753.19;5070580;28;20040;-75
2023/07/31 05:29:37;;;;;;;12.43;5.10;;;;;;;17.75;78.74;100747.56;5069666;28;20024;-75
2023/07/31 05:32:03;;;;;;;14.60;5.57;;;;;;;17.75;79.23;100754.00;5070121;28;20795;-75
2023/07/31 05:34:29;;;;;;;11.00;5.50;;;;;;;17.69;79.88;100748.75;5067063;28;20036;-75
2023/07/31 05:36:54;;;;;;;10.73;4.97;;;;;;;17.73;79.43;100755.44;5053571;28;20029;-75
2023/07/31 05:39:19;;;;;;;10.90;5.07;;;;;;;17.68;80.13;100747.91;5051153;28;20056;-75
2023/07/31 05:41:45;;;;;;;10.70;4.97;;;;;;;17.65;80.22;100740.94;5050976;28;20087;-75
2023/07/31 05:44:10;;;;;;;7.72;4.25;;;;;;;17.65;80.64;100742.91;5060077;28;20027;-75
2023/07/31 05:46:36;;;;;;;8.20;4.40;;;;;;;17.60;80.96;100734.56;5068313;28;20117;-75
2023/07/31 05:49:01;;;;;;;6.53;4.40;;;;;;;17.59;81.16;100735.69;5070971;28;20024;-75
2023/07/31 05:51:27;;;;;;;8.23;4.30;;;;;;;17.58;80.96;100720.84;5069492;28;20032;-75
2023/07/31 05:53:53;;;;;;;5.70;3.65;;;;;;;17.60;80.99;100717.72;5064696;28;20395;-75
2023/07/31 05:56:18;;;;;;;8.40;3.70;;;;;;;17.61;81.13;100722.22;5069841;28;20024;-76
2023/07/31 05:58:43;;;;;;;7.47;3.80;;;;;;;17.63;81.32;100725.53;5070518;28;20037;-76
2023/07/31 06:01:09;;;;;;;5.57;3.72;;;;;;;17.62;81.52;100727.50;5071436;28;20028;-76
2023/07/31 06:03:34;;;;;;;6.40;3.50;;;;;;;17.61;81.60;100727.81;5071240;28;20031;-76
2023/07/31 06:05:59;;;;;;;4.55;3.17;;;;;;;17.62;81.57;100726.69;5071684;28;20472;-76
2023/07/31 06:08:25;;;;;;;5.43;3.35;;;;;;;17.58;81.95;100720.84;5070221;28;20039;-76
2023/07/31 06:10:50;;;;;;;4.07;3.22;;;;;;;17.57;81.54;100718.34;5062122;28;20115;-76
2023/07/31 06:13:15;;;;;;;4.25;3.15;;;;;;;17.54;82.10;100716.13;5063721;28;20020;-76
2023/07/31 06:15:41;;;;;;;5.55;3.05;;;;;;;17.56;82.19;100711.88;5072695;28;20048;-75
2023/07/31 06:18:07;;;;;;;5.43;2.90;;;;;;;17.57;82.10;100707.13;5073177;28;20112;-76
2023/07/31 06:20:34;;;;;;;4.28;3.00;;;;;;;17.54;82.19;100714.16;5072804;28;20048;-76
2023/07/31 06:22:59;;;;;;;4.45;2.85;;;;;;;17.56;82.12;100711.03;5073917;28;20072;-74
2023/07/31 06:25:24;;;;;;;4.22;3.03;;;;;;;17.56;82.46;100709.06;5069046;28;20048;-72
2023/07/31 06:27:50;;;;;;;4.57;3.20;;;;;;;17.58;82.58;100704.00;5068049;28;20033;-76
2023/07/31 06:30:15;;;;;;;4.80;3.08;;;;;;;17.58;82.57;100706.81;5068345;28;20051;-74
2023/07/31 06:32:40;;;;;;;4.55;3.33;;;;;;;17.58;82.73;100706.81;5064666;28;20029;-72
2023/07/31 06:35:06;;;;;;;5.85;3.13;;;;;;;17.60;82.82;100700.88;5069482;28;20037;-72
2023/07/31 06:37:32;;;;;;;6.20;3.50;;;;;;;17.60;82.98;100700.88;5072013;28;20025;-73
2023/07/31 06:39:57;;;;;;;5.45;3.70;;;;;;;17.58;83.17;100697.56;5070646;28;20143;-73
2023/07/31 06:42:23;;;;;;;4.88;3.13;;;;;;;17.61;83.32;100696.94;5072415;28;20115;-73
2023/07/31 06:44:48;;;;;;;4.72;3.20;;;;;;;17.60;83.21;100700.88;5068520;28;20020;-72
2023/07/31 06:47:13;;;;;;;5.07;3.50;;;;;;;17.61;83.20;100685.72;5072983;28;20398;-73
2023/07/31 06:49:39;;;;;;;4.85;3.25;;;;;;;17.62;83.10;100684.56;5066424;28;20021;-74
2023/07/31 06:52:04;;;;;;;5.10;3.35;;;;;;;17.56;83.64;100682.97;5062507;28;20788;-74
2023/07/31 06:54:29;;;;;;;4.90;3.38;;;;;;;17.53;83.76;100672.38;5070755;28;20495;-74
2023/07/31 06:56:55;;;;;;;4.50;3.25;;;;;;;17.49;83.93;100680.56;5064951;28;20469;-74
2023/07/31 06:59:20;;;;;;;4.95;3.08;;;;;;;17.49;84.01;100685.31;5071394;28;20614;-74
2023/07/31 07:01:45;;;;;;;4.10;3.05;;;;;;;17.56;83.66;100686.59;5069516;28;20081;-67
2023/07/31 07:04:11;;;;;;;4.95;3.33;;;;;;;17.59;83.04;100685.19;5065023;28;20621;-73
2023/07/31 07:06:36;;;;;;;7.50;3.70;;;;;;;17.59;83.63;100677.59;5068812;28;20448;-71
2023/07/31 07:09:02;;;;;;;4.35;3.25;;;;;;;17.64;83.64;100673.88;5070532;28;20016;-72
2023/07/31 07:11:27;;;;;;;3.97;3.00;;;;;;;17.62;84.34;100678.97;5069793;28;20025;-74
2023/07/31 07:13:52;;;;;;;4.50;3.28;;;;;;;17.65;83.78;100667.13;5067559;28;20037;-74
2023/07/31 07:16:19;;;;;;;3.67;3.05;;;;;;;17.63;84.07;100666.59;5069924;28;20032;-73
2023/07/31 07:18:44;;;;;;;3.92;3.28;;;;;;;17.65;84.20;100662.34;5066690;28;20123;-76
2023/07/31 07:21:09;;;;;;;4.43;3.38;;;;;;;17.68;83.78;100669.31;5067270;28;20028;-75
2023/07/31 07:23:35;;;;;;;3.40;3.05;;;;;;;17.67;84.37;100664.84;5065022;28;20476;-78
2023/07/31 07:26:00;;;;;;;4.13;3.00;;;;;;;17.68;84.52;100663.69;5067980;28;20044;-74
2023/07/31 07:28:26;;;;;;;4.55;3.15;;;;;;;17.69;83.70;100668.19;5067638;28;20036;-75
2023/07/31 07:30:55;;;;;;;5.00;3.65;;;;;;;17.65;83.92;100658.72;5067502;28;20073;-74
2023/07/31 07:33:20;;;;;;;3.85;3.38;;;;;;;17.64;83.93;100663.50;5068321;28;20036;-75
2023/07/31 07:35:46;;;;;;;7.00;3.58;;;;;;;17.63;83.97;100666.59;5072125;28;20024;-76
2023/07/31 07:38:14;;;;;;;6.07;3.95;;;;;;;17.65;83.85;100669.94;5069622;28;20028;-76
2023/07/31 07:40:39;;;;;;;4.93;3.50;;;;;;;17.61;83.99;100669.72;5066834;28;20059;-76
2023/07/31 07:43:05;;;;;;;6.75;3.63;;;;;;;17.61;84.22;100668.88;5059422;28;20551;-76
2023/07/31 07:45:30;;;;;;;6.60;3.63;;;;;;;17.58;83.56;100669.47;5062034;28;20037;-75
2023/07/31 07:47:55;;;;;;;6.28;3.83;;;;;;;17.59;83.63;100671.97;5063702;28;20503;-75
2023/07/31 07:50:21;;;;;;;5.63;3.65;;;;;;;17.60;84.32;100670.00;5069128;28;20119;-74
2023/07/31 07:52:46;;;;;;;8.77;4.40;;;;;;;17.73;83.55;100666.44;5068282;28;20029;-75
2023/07/31 07:55:11;;;;;;;6.53;4.10;;;;;;;17.78;83.06;100668.34;5062480;28;20096;-75
2023/07/31 07:57:37;;;;;;;7.38;4.55;;;;;;;17.82;83.07;100661.81;5064542;28;20071;-75
2023/07/31 08:00:02;;;;;;;6.10;4.63;;;;;;;17.79;83.60;100664.41;5070968;28;20101;-71
2023/07/31 08:02:28;;;;;;;10.38;4.93;;;;;;;17.76;83.67;100657.41;5068523;28;20441;-77
2023/07/31 08:04:53;;;;;;;6.78;4.50;;;;;;;17.74;83.38;100662.47;5060261;28;20024;-75
2023/07/31 08:07:18;;;;;;;7.90;4.47;;;;;;;17.74;83.76;100664.47;5066628;28;20041;-74
2023/07/31 08:09:43;;;;;;;7.18;4.30;;;;;;;17.70;84.01;100661.44;5057228;28;20074;-66
2023/07/31 08:12:09;;;;;;;6.10;4.18;;;;;;;17.73;83.81;100660.81;5056175;28;20053;-75
2023/07/31 08:14:35;;;;;;;8.60;4.72;;;;;;;17.70;84.21;100653.00;5061594;28;20048;-73
2023/07/31 08:17:02;;;;;;;5.97;4.55;;;;;;;17.70;83.83;100653.00;5040836;28;20033;-75
2023/07/31 08:19:27;;;;;;;8.25;4.80;;;;;;;17.66;84.40;100655.59;5048267;28;20079;-76
2023/07/31 08:21:52;;;;;;;6.95;4.55;;;;;;;17.68;84.34;100660.88;5044181;28;20033;-73
2023/07/31 08:24:18;;;;;;;6.82;4.50;;;;;;;17.67;84.50;100660.06;5037906;28;20032;-74
2023/07/31 08:26:43;;;;;;;5.90;4.40;;;;;;;17.65;84.25;100653.94;5046251;28;20040;-73
2023/07/31 08:29:09;;;;;;;6.57;3.97;;;;;;;17.65;84.84;100648.31;5045549;28;20040;-75
2023/07/31 08:31:34;;;;;;;6.30;4.35;;;;;;;17.67;84.67;100650.81;5048903;28;20025;-74
2023/07/31 08:34:00;;;;;;;5.57;4.35;;;;;;;17.70;84.31;100654.97;5049871;28;20047;-73
2023/07/31 08:36:25;;;;;;;8.30;4.35;;;;;;;17.71;84.41;100651.84;5049432;28;20033;-72
2023/07/31 08:38:51;;;;;;;9.73;5.20;;;;;;;17.64;84.88;100654.22;5051203;28;20036;-64
2023/07/31 08:41:19;;;;;;;7.80;5.00;;;;;;;17.69;84.92;100648.53;5044983;28;20033;-78
2023/07/31 08:43:49;;;;;;;8.50;5.07;;;;;;;17.68;84.55;100658.06;5040279;28;20049;-75
2023/07/31 08:46:15;;;;;;;9.07;4.78;;;;;;;17.67;84.60;100657.25;5046624;28;20033;-76
2023/07/31 08:48:44;;;;;;;5.72;4.53;;;;;;;17.70;84.51;100654.97;5049518;28;20099;-76
2023/07/31 08:51:09;;;;;;;7.18;4.85;;;;;;;17.67;84.63;100656.41;5044327;28;20111;-77
2023/07/31 08:53:35;;;;;;;7.30;5.13;;;;;;;17.69;84.52;100650.50;5049296;28;20445;-77
2023/07/31 08:56:00;;;;;;;7.35;5.00;;;;;;;17.66;84.95;100649.97;5050920;28;20037;-77
2023/07/31 08:58:31;;;;;;;11.57;5.32;;;;;;;17.66;84.76;100646.34;5050808;28;20103;-77
2023/07/31 09:00:57;;;;;;;7.65;5.15;;;;;;;17.71;84.69;100643.44;5051013;28;20056;-77
2023/07/31 09:03:25;;;;;;;7.28;5.32;;;;;;;17.67;84.60;100645.19;5051128;28;20029;-77
2023/07/31 09:05:51;;;;;;;9.65;5.50;;;;;;;17.68;84.72;100644.03;5050426;28;20060;-77
2023/07/31 09:08:21;;;;;;;7.82;5.72;;;;;;;17.70;84.74;100655.81;5047309;28;20136;-77
2023/07/31 09:10:47;;;;;;;8.48;5.60;;;;;;;17.73;84.19;100645.97;5051101;28;20369;-77
2023/07/31 09:13:14;;;;;;;7.28;5.20;;;;;;;17.76;84.05;100637.75;5050814;28;20108;-77
2023/07/31 09:15:40;;;;;;;7.78;5.30;;;;;;;17.79;84.08;100636.31;5065673;28;20040;-77
2023/07/31 09:18:07;;;;;;;8.05;4.90;;;;;;;17.79;83.98;100637.16;5071063;28;20031;-77
2023/07/31 09:20:33;;;;;;;9.18;4.78;;;;;;;17.79;84.05;100628.72;5070221;28;20035;-77
2023/07/31 09:23:12;;;;;;;7.47;4.10;;;;;;;17.84;82.63;100642.69;5070784;28;20056;-77
2023/07/31 09:25:39;;;;;;;9.23;5.05;;;;;;;17.84;83.61;100636.22;5067125;28;20419;-77
2023/07/31 09:28:07;;;;;;;9.05;5.70;;;;;;;17.81;83.84;100631.25;5070600;28;20070;-77
2023/07/31 09:30:46;;;;;;;10.40;5.53;;;;;;;17.80;84.04;100626.75;5071087;28;20028;-77
2023/07/31 09:33:11;;;;;;;7.47;5.18;;;;;;;17.76;83.78;100637.75;5071132;28;20041;-77
2023/07/31 09:35:43;;;;;;;8.52;4.78;;;;;;;17.79;84.09;100625.09;5072026;28;20031;-77
2023/07/31 09:38:15;;;;;;;8.70;5.55;;;;;;;17.81;84.18;100620.84;5074730;28;20044;-77
2023/07/31 09:40:45;;;;;;;8.98;4.75;;;;;;;17.84;84.17;100628.66;5070405;28;20035;-77
2023/07/31 09:43:12;;;;;;;9.95;5.22;;;;;;;17.88;83.98;100621.28;5074371;28;20026;-77
2023/07/31 09:45:40;;;;;;;6.78;4.53;;;;;;;17.87;83.83;100625.22;5074532;28;20024;-77
2023/07/31 09:48:16;;;;;;;8.13;5.47;;;;;;;17.89;84.24;100620.16;5073895;28;20039;-77
2023/07/31 09:50:42;;;;;;;6.15;4.50;;;;;;;17.91;83.84;100623.47;5074383;28;20020;-77
2023/07/31 09:53:08;;;;;;;8.45;4.97;;;;;;;17.91;82.17;100606.63;5074681;28;20043;-77
2023/07/31 09:55:34;;;;;;;8.10;4.93;;;;;;;17.93;84.00;100613.91;5073887;28;20722;-76
2023/07/31 09:58:04;;;;;;;9.48;4.97;;;;;;;17.94;83.86;100616.41;5059283;28;20032;-77
2023/07/31 10:00:30;;;;;;;7.43;4.70;;;;;;;17.97;84.13;100620.59;5054569;28;20025;-77
2023/07/31 10:02:59;;;;;;;8.63;4.65;;;;;;;17.99;83.45;100618.28;5053894;28;20535;-77
2023/07/31 10:05:42;;;;;;;8.15;5.05;;;;;;;17.98;84.23;100616.63;5054091;28;20036;-76
2023/07/31 10:08:08;;;;;;;;;;;;;;;18.10;82.82;100608.53;5054742;28;20036;-77
2023/07/31 10:10:36;;;;;;;8.45;4.45;;;;;;;18.03;83.08;100608.94;5053718;28;19916;-77
2023/07/31 10:13:02;;;;;;;8.27;4.88;;;;;;;18.04;83.64;100609.78;5059915;28;20023;-77
2023/07/31 10:15:28;;;;;;;7.13;4.65;;;;;;;18.05;83.74;100601.03;5073994;28;20053;-77
2023/07/31 10:17:54;;;;;;;7.03;4.50;;;;;;;18.11;83.74;100605.41;5073472;28;20029;-76
2023/07/31 10:20:20;;;;;;;8.80;4.25;;;;;;;18.14;83.93;100601.16;5073902;28;20158;-77
2023/07/31 10:22:46;;;;;;;7.72;4.22;;;;;;;18.12;83.93;100595.03;5069305;28;21027;-77
2023/07/31 10:25:12;;;;;;;9.02;4.10;;;;;;;18.17;83.60;100597.72;5071070;28;20064;-77
2023/07/31 10:27:41;;;;;;;6.60;4.20;;;;;;;18.14;83.40;100603.97;5073747;28;20123;-76
2023/07/31 10:30:10;;;;;;;6.88;3.92;;;;;;;18.12;83.33;100609.06;5073232;28;20468;-77
2023/07/31 10:32:37;;;;;;;6.78;4.35;;;;;;;18.16;83.40;100612.94;5073646;28;20032;-76
2023/07/31 10:35:06;;;;;;;8.50;4.10;;;;;;;18.16;82.78;100601.69;5073982;28;20090;-76
2023/07/31 10:37:39;;;;;;;7.47;4.10;;;;;;;18.17;83.78;100608.97;5073328;28;20042;-76
2023/07/31 10:40:40;;;;;;;6.35;3.67;;;;;;;18.24;83.20;100612.22;5071723;28;20115;-76
2023/07/31 10:43:08;;;;;;;6.78;4.00;;;;;;;18.23;83.54;100606.88;4944210;29;20027;-76
2023/07/31 10:45:42;;;;;;;8.07;3.88;;;;;;;18.25;82.91;100619.47;5050053;28;20059;-77
2023/07/31 10:48:15;;;;;;;6.95;4.00;;;;;;;18.25;82.68;100611.06;5074201;28;20103;-77
2023/07/31 10:50:52;;;;;;;5.78;4.28;;;;;;;18.29;83.52;100622.50;5073942;28;20380;-77
2023/07/31 10:53:29;;;;;;;6.95;4.07;;;;;;;18.30;83.63;100608.13;5073565;28;20033;-76
2023/07/31 10:56:01;;;;;;;4.75;3.90;;;;;;;18.29;82.23;100606.47;5073802;28;20063;-76
2023/07/31 10:58:26;;;;;;;7.57;4.20;;;;;;;18.31;81.95;100606.16;5069787;28;20032;-76
2023/07/31 11:00:56;;;;;;;5.35;4.10;;;;;;;18.32;82.28;100607.84;5071444;28;20502;-76
2023/07/31 11:03:26;;;;;;;4.50;3.40;;;;;;;18.33;82.30;100606.69;5073498;28;20024;-76
2023/07/31 11:05:56;;;;;;;6.57;4.20;;;;;;;18.33;82.90;100599.09;5072912;28;20024;-76
2023/07/31 11:08:23;;;;;;;8.20;4.03;;;;;;;18.39;82.20;100599.81;5072755;28;20484;-76
2023/07/31 11:11:06;;;;;;;6.95;4.00;;;;;;;18.44;82.14;100601.72;5072933;28;20471;-76
2023/07/31 11:13:32;;;;;;;7.88;4.57;;;;;;;18.45;83.05;100606.19;5072835;28;20024;-76
2023/07/31 11:15:58;;;;;;;8.38;4.25;;;;;;;18.44;82.22;100599.72;5066202;28;20045;-76
2023/07/31 11:18:25;;;;;;;6.72;4.40;;;;;;;18.46;82.13;100596.59;5072222;28;20161;-76
2023/07/31 11:20:51;;;;;;;7.32;4.38;;;;;;;18.42;81.59;100593.56;5072095;28;20044;-76